Time;durP1;ratioP1;P1;durP2;ratioP2;P2;SDS_P1;SDS_P2;PMS_P1;PMS_P2;Temp;Humidity;BMP_temperature;BMP_pressure;BME280_temperature;BME280_humidity;BME280_pressure;Samples;Min_cycle;Max_cycle;Signal;HPM_P1;HPM_P2
2020/12/08 00:00:45;;;;;;;13.97;11.17;;;4.90;99.90;;;;;;5052714;28;20173;-79
2020/12/08 00:03:11;;;;;;;14.37;11.33;;;4.80;99.90;;;;;;5052494;28;20173;-77
2020/12/08 00:05:36;;;;;;;13.93;11.90;;;4.80;99.90;;;;;;5051524;28;20222;-77
2020/12/08 00:08:05;;;;;;;15.30;12.30;;;4.80;99.90;;;;;;5052287;28;20168;-79
2020/12/08 00:10:31;;;;;;;14.83;12.27;;;4.80;99.90;;;;;;5052087;28;20205;-78
2020/12/08 00:12:57;;;;;;;14.20;11.53;;;4.80;99.90;;;;;;5052915;28;20175;-78
2020/12/08 00:15:22;;;;;;;14.40;11.77;;;4.80;99.90;;;;;;5052379;28;20180;-82
2020/12/08 00:17:48;;;;;;;14.00;10.77;;;4.90;99.90;;;;;;5052485;28;20161;-78
2020/12/08 00:20:16;;;;;;;12.33;10.23;;;4.80;99.90;;;;;;5052416;28;20196;-78
2020/12/08 00:22:42;;;;;;;13.70;10.93;;;4.70;99.90;;;;;;5052691;28;20161;-77
2020/12/08 00:25:09;;;;;;;14.30;11.70;;;4.60;99.90;;;;;;5051968;28;20177;-78
2020/12/08 00:27:38;;;;;;;14.70;10.70;;;4.50;99.90;;;;;;5052471;28;20161;-78
2020/12/08 00:30:12;;;;;;;15.40;11.70;;;4.50;99.90;;;;;;5051913;28;20201;-88
2020/12/08 00:32:40;;;;;;;13.77;11.40;;;4.30;99.90;;;;;;5052425;28;20176;-78
2020/12/08 00:35:12;;;;;;;14.80;11.47;;;4.40;99.90;;;;;;5056098;28;20173;-78
2020/12/08 00:37:42;;;;;;;15.30;12.17;;;4.50;99.90;;;;;;5056198;28;20176;-78
2020/12/08 00:40:07;;;;;;;14.63;12.00;;;4.60;99.90;;;;;;5055642;28;20676;-78
2020/12/08 00:42:35;;;;;;;13.50;11.23;;;4.60;99.90;;;;;;5054864;28;20196;-79
2020/12/08 00:45:00;;;;;;;13.70;11.50;;;4.70;99.90;;;;;;5054745;28;20539;-78
2020/12/08 00:47:26;;;;;;;16.57;12.67;;;4.70;99.90;;;;;;5054980;28;20387;-77
2020/12/08 00:49:52;;;;;;;14.97;11.40;;;4.70;99.90;;;;;;5055927;28;20203;-78
2020/12/08 00:52:17;;;;;;;16.37;12.07;;;4.70;99.90;;;;;;5054659;28;20184;-79
2020/12/08 00:54:43;;;;;;;14.63;12.50;;;4.70;99.90;;;;;;5055793;28;20248;-78
2020/12/08 00:57:08;;;;;;;15.50;12.93;;;4.70;99.90;;;;;;5054534;28;20267;-78
2020/12/08 00:59:34;;;;;;;15.43;12.53;;;4.70;99.90;;;;;;5055924;28;20172;-77
2020/12/08 01:02:01;;;;;;;15.97;12.40;;;4.60;99.90;;;;;;5055942;28;20165;-78
2020/12/08 01:04:28;;;;;;;15.23;12.60;;;4.60;99.90;;;;;;5055870;28;20315;-78
2020/12/08 01:06:54;;;;;;;15.00;11.77;;;4.60;99.90;;;;;;5055731;28;20640;-77
2020/12/08 01:09:19;;;;;;;14.43;12.43;;;4.60;99.90;;;;;;5055167;28;20248;-78
2020/12/08 01:11:46;;;;;;;15.80;12.33;;;4.50;99.90;;;;;;5056046;28;20267;-78
2020/12/08 01:14:13;;;;;;;15.60;12.30;;;4.50;99.90;;;;;;5055799;28;20620;-78
2020/12/08 01:16:39;;;;;;;14.40;11.77;;;4.50;99.90;;;;;;5054377;28;20264;-78
2020/12/08 01:19:06;;;;;;;14.33;11.63;;;4.50;99.90;;;;;;5055598;28;20188;-78
2020/12/08 01:21:31;;;;;;;17.17;12.43;;;4.50;99.90;;;;;;5054120;28;20176;-78
2020/12/08 01:23:57;;;;;;;15.53;13.10;;;4.40;99.90;;;;;;5055273;28;20161;-78
2020/12/08 01:26:24;;;;;;;15.90;12.20;;;4.40;99.90;;;;;;5054132;28;20177;-77
2020/12/08 01:28:50;;;;;;;15.80;12.23;;;4.30;99.90;;;;;;5055673;28;20586;-79
2020/12/08 01:31:15;;;;;;;15.97;12.53;;;4.40;99.90;;;;;;5053935;28;20691;-78
2020/12/08 01:33:41;;;;;;;16.30;12.37;;;4.30;99.90;;;;;;5055124;28;20173;-78
2020/12/08 01:36:07;;;;;;;19.93;13.80;;;4.30;99.90;;;;;;5055035;28;20177;-79
2020/12/08 01:38:32;;;;;;;16.13;12.80;;;4.20;99.90;;;;;;5053801;28;20172;-78
2020/12/08 01:40:58;;;;;;;17.07;12.87;;;4.10;99.90;;;;;;5054748;28;20212;-78
2020/12/08 01:43:24;;;;;;;14.80;12.40;;;4.20;99.90;;;;;;5054455;28;20595;-78
2020/12/08 07:45:32;;;;;;;20.07;14.07;;;4.50;99.90;;;;;;4999808;23;20228;-81
2020/12/08 07:48:00;;;;;;;18.63;12.50;;;4.60;99.90;;;;;;4973723;28;20176;-77
2020/12/08 07:50:29;;;;;;;20.20;13.90;;;4.50;99.90;;;;;;4971569;28;20208;-77
2020/12/08 07:52:55;;;;;;;18.37;13.07;;;4.50;99.90;;;;;;4960252;28;20239;-83
2020/12/08 07:55:21;;;;;;;17.23;12.43;;;4.60;99.90;;;;;;4958466;28;20531;-78
2020/12/08 07:57:46;;;;;;;15.93;12.70;;;4.70;99.90;;;;;;4953106;28;20260;-80
2020/12/08 08:00:12;;;;;;;16.80;12.20;;;4.70;99.90;;;;;;4969811;28;20239;-81
2020/12/08 08:02:37;;;;;;;16.87;12.73;;;4.90;99.90;;;;;;4970164;28;20200;-78
2020/12/08 08:05:03;;;;;;;18.93;12.30;;;4.90;99.90;;;;;;4966454;29;20608;-80
2020/12/08 08:07:29;;;;;;;17.17;11.60;;;5.00;99.90;;;;;;4963869;29;20188;-80
2020/12/08 08:09:54;;;;;;;17.83;11.63;;;5.00;99.90;;;;;;4960922;28;20207;-83
2020/12/08 08:12:20;;;;;;;15.23;11.80;;;5.00;99.90;;;;;;4946775;29;20177;-82
2020/12/08 08:14:46;;;;;;;16.83;12.50;;;5.10;99.90;;;;;;4947327;28;20181;-80
2020/12/08 08:17:11;;;;;;;18.27;12.70;;;5.00;99.90;;;;;;4946278;29;20227;-82
2020/12/08 08:19:37;;;;;;;18.70;12.27;;;5.00;99.90;;;;;;4946057;28;20185;-82
2020/12/08 08:22:03;;;;;;;17.43;11.97;;;5.00;99.90;;;;;;4946017;28;20235;-80
2020/12/08 08:24:29;;;;;;;13.73;11.13;;;4.90;99.90;;;;;;4947608;29;20192;-82
2020/12/08 08:26:55;;;;;;;15.07;11.80;;;5.00;99.90;;;;;;4945553;29;20166;-81
2020/12/08 08:29:22;;;;;;;17.10;12.10;;;5.00;99.90;;;;;;4944179;29;20540;-81
2020/12/08 08:31:50;;;;;;;17.87;13.07;;;5.00;99.90;;;;;;4949931;29;20176;-83
2020/12/08 08:34:16;;;;;;;19.57;13.00;;;5.00;99.90;;;;;;4960270;29;20164;-79
2020/12/08 08:36:52;;;;;;;17.13;12.40;;;5.10;99.90;;;;;;4965148;29;20188;-82
2020/12/08 08:39:18;;;;;;;17.13;12.97;;;5.10;99.90;;;;;;4967000;29;20161;-79
2020/12/08 08:41:44;;;;;;;21.00;14.00;;;5.20;99.90;;;;;;4954675;28;20199;-84
2020/12/08 08:44:10;;;;;;;23.10;15.90;;;5.10;99.90;;;;;;4958785;28;20286;-82
2020/12/08 08:46:39;;;;;;;24.73;14.37;;;5.20;99.90;;;;;;4966220;28;20204;-83
2020/12/08 08:49:07;;;;;;;21.77;14.83;;;5.20;99.90;;;;;;4964534;28;20203;-84
2020/12/08 08:51:35;;;;;;;22.10;14.93;;;4.90;99.90;;;;;;4962350;28;20230;-83
2020/12/08 08:54:02;;;;;;;23.67;14.03;;;5.00;99.90;;;;;;4967279;28;20188;-83
2020/12/08 08:56:28;;;;;;;22.23;13.30;;;5.10;99.90;;;;;;4951163;28;20176;-80
2020/12/08 08:58:53;;;;;;;23.33;13.77;;;5.10;99.90;;;;;;4951162;29;20165;-81
2020/12/08 09:01:19;;;;;;;22.03;14.77;;;5.20;99.90;;;;;;4951508;28;20180;-83
2020/12/08 09:03:45;;;;;;;21.37;14.87;;;5.20;99.90;;;;;;4947143;29;20212;-83
2020/12/08 09:06:14;;;;;;;16.43;13.20;;;5.30;99.90;;;;;;4948565;28;20187;-83
2020/12/08 09:08:40;;;;;;;17.77;12.80;;;5.50;99.90;;;;;;4964226;29;20180;-79
2020/12/08 09:11:08;;;;;;;19.60;14.67;;;5.30;99.90;;;;;;4959173;29;20240;-83
2020/12/08 09:13:35;;;;;;;18.73;14.00;;;5.30;99.90;;;;;;4943780;29;20181;-84
2020/12/08 09:16:01;;;;;;;19.77;14.03;;;5.30;99.90;;;;;;4954521;29;20185;-83
2020/12/08 09:18:26;;;;;;;18.37;14.00;;;5.40;99.90;;;;;;4972915;28;20176;-84
2020/12/08 09:20:53;;;;;;;20.67;14.77;;;5.40;99.90;;;;;;4979795;28;20204;-83
2020/12/08 09:23:22;;;;;;;21.13;13.60;;;5.50;99.90;;;;;;4973986;29;20202;-82
2020/12/08 09:25:54;;;;;;;21.33;15.30;;;5.50;99.90;;;;;;4956015;29;20169;-84
2020/12/08 09:28:23;;;;;;;23.87;15.10;;;5.70;99.90;;;;;;4952763;29;20197;-83
2020/12/08 09:30:49;;;;;;;21.60;13.53;;;5.70;99.90;;;;;;4938773;29;20310;-83
2020/12/08 09:33:15;;;;;;;19.57;14.73;;;5.60;99.90;;;;;;4938010;29;20168;-81
2020/12/08 09:35:41;;;;;;;25.73;14.77;;;5.50;99.90;;;;;;4937423;29;20192;-80
2020/12/08 09:38:08;;;;;;;23.63;14.33;;;5.50;99.90;;;;;;4937431;29;20191;-79
2020/12/08 09:40:35;;;;;;;19.80;14.37;;;5.60;99.90;;;;;;4944568;29;20183;-76
2020/12/08 09:43:01;;;;;;;19.33;14.53;;;5.80;99.90;;;;;;4956068;28;20180;-77
2020/12/08 09:45:27;;;;;;;28.40;16.33;;;5.90;99.90;;;;;;4956258;28;20295;-81
2020/12/08 09:47:52;;;;;;;21.83;14.67;;;5.80;99.90;;;;;;4956686;28;20279;-80
2020/12/08 09:50:21;;;;;;;23.03;15.70;;;5.80;99.90;;;;;;4955953;28;20239;-77
2020/12/08 09:52:47;;;;;;;21.77;16.27;;;5.80;99.90;;;;;;4955368;29;20176;-77
2020/12/08 09:55:13;;;;;;;23.77;16.87;;;5.80;99.90;;;;;;4955452;29;20181;-79
2020/12/08 09:57:39;;;;;;;24.27;16.43;;;5.90;99.90;;;;;;4955573;28;20168;-77
2020/12/08 10:00:06;;;;;;;23.63;15.10;;;5.90;99.90;;;;;;4942476;28;20252;-78
2020/12/08 10:02:33;;;;;;;22.30;14.83;;;6.00;99.90;;;;;;4932036;29;20196;-78
2020/12/08 10:04:58;;;;;;;20.93;15.23;;;6.20;99.90;;;;;;4935224;29;20169;-77
2020/12/08 10:07:24;;;;;;;23.57;15.60;;;6.30;99.90;;;;;;4936359;29;20231;-78
2020/12/08 10:09:51;;;;;;;20.47;13.13;;;6.50;99.90;;;;;;4937145;29;20211;-78
2020/12/08 10:12:17;;;;;;;21.33;13.80;;;6.30;99.90;;;;;;4936093;29;20185;-78
2020/12/08 10:14:44;;;;;;;20.83;14.20;;;6.50;99.90;;;;;;4942815;29;20264;-76
2020/12/08 10:17:17;;;;;;;14.60;11.30;;;6.60;99.90;;;;;;4955740;28;20188;-78
2020/12/08 10:19:44;;;;;;;16.10;11.47;;;6.80;99.90;;;;;;4955891;28;20574;-81
2020/12/08 10:22:12;;;;;;;21.77;14.77;;;6.70;99.90;;;;;;4957980;29;20168;-79
2020/12/08 10:24:39;;;;;;;21.90;13.93;;;6.60;99.90;;;;;;4960457;29;20180;-80
2020/12/08 10:27:06;;;;;;;18.00;12.97;;;6.80;99.90;;;;;;4962422;28;20173;-82
2020/12/08 10:29:32;;;;;;;15.43;12.73;;;7.00;99.90;;;;;;4933108;29;20189;-78
2020/12/08 10:31:58;;;;;;;17.90;12.70;;;7.10;99.90;;;;;;4938105;29;20177;-76
2020/12/08 10:34:24;;;;;;;16.53;11.33;;;7.20;99.90;;;;;;4936585;29;20268;-78
2020/12/08 10:36:53;;;;;;;11.93;10.27;;;7.20;99.90;;;;;;4937480;29;20203;-77
2020/12/08 10:39:19;;;;;;;13.77;10.50;;;7.00;99.90;;;;;;4935122;29;20698;-80
2020/12/08 10:41:45;;;;;;;14.80;10.40;;;7.10;99.90;;;;;;4936567;29;20281;-77
2020/12/08 10:44:10;;;;;;;14.07;10.70;;;7.00;99.90;;;;;;4936576;29;20213;-77
2020/12/08 10:46:37;;;;;;;11.80;10.23;;;7.10;99.90;;;;;;4936966;29;20641;-80
2020/12/08 10:49:07;;;;;;;13.90;11.33;;;7.10;99.90;;;;;;4940228;29;20638;-79
2020/12/08 10:51:33;;;;;;;14.73;11.80;;;7.40;99.90;;;;;;4947980;29;20220;-76
2020/12/08 10:53:58;;;;;;;14.13;12.20;;;7.90;99.90;;;;;;4947190;29;20538;-76
2020/12/08 10:56:25;;;;;;;16.23;11.03;;;8.00;99.90;;;;;;4949398;29;20183;-75
2020/12/08 10:58:53;;;;;;;13.73;10.83;;;8.20;99.90;;;;;;4948769;29;20188;-81
2020/12/08 11:01:20;;;;;;;13.67;11.33;;;8.30;99.90;;;;;;4948867;29;20196;-77
2020/12/08 11:03:47;;;;;;;13.40;11.77;;;8.40;99.90;;;;;;4949154;29;20169;-82
2020/12/08 11:06:22;;;;;;;13.93;10.90;;;8.30;99.90;;;;;;4947598;29;20620;-79
2020/12/08 11:08:48;;;;;;;12.10;10.10;;;8.60;99.90;;;;;;4939447;29;20177;-85
2020/12/08 11:11:29;;;;;;;12.87;9.40;;;8.80;99.90;;;;;;4940628;29;20209;-84
2020/12/08 11:13:56;;;;;;;12.80;10.10;;;9.00;99.90;;;;;;4941560;29;20263;-76
2020/12/08 11:16:24;;;;;;;9.80;8.13;;;9.00;99.90;;;;;;4952268;28;20193;-79
2020/12/08 11:18:50;;;;;;;9.47;8.47;;;8.50;99.90;;;;;;4950794;29;20264;-82
2020/12/08 11:21:23;;;;;;;10.10;9.07;;;8.40;99.90;;;;;;4942310;29;20169;-81
2020/12/08 11:23:49;;;;;;;12.63;10.30;;;8.50;99.90;;;;;;4942120;29;20184;-84
2020/12/08 11:26:16;;;;;;;11.87;10.57;;;8.70;99.90;;;;;;4941655;29;20181;-82
2020/12/08 11:28:47;;;;;;;21.63;15.17;;;8.80;99.90;;;;;;4942022;29;20175;-82
2020/12/08 11:31:19;;;;;;;20.90;15.00;;;8.50;99.90;;;;;;4942054;29;20213;-84
2020/12/08 11:33:46;;;;;;;23.60;16.37;;;7.60;99.90;;;;;;4948169;29;20204;-84
2020/12/08 11:36:14;;;;;;;27.33;17.30;;;7.10;99.90;;;;;;4954320;29;20679;-84
2020/12/08 11:38:40;;;;;;;23.33;16.23;;;6.70;99.90;;;;;;4955416;29;20153;-78
2020/12/08 11:41:07;;;;;;;21.80;16.90;;;6.60;99.90;;;;;;4951725;29;20168;-80
2020/12/08 11:43:33;;;;;;;22.27;16.50;;;6.60;99.90;;;;;;4943816;29;20181;-80
2020/12/08 11:45:59;;;;;;;25.60;17.77;;;6.50;99.90;;;;;;4938217;29;20215;-85
2020/12/08 11:48:25;;;;;;;24.30;17.27;;;6.50;99.90;;;;;;4937675;29;20655;-83
2020/12/08 11:50:55;;;;;;;26.37;18.27;;;6.40;99.90;;;;;;4942784;29;20283;-79
2020/12/08 11:53:21;;;;;;;25.67;18.13;;;6.40;99.90;;;;;;4954274;29;20179;-82
2020/12/08 11:55:48;;;;;;;26.37;19.13;;;6.20;99.90;;;;;;4947332;28;20191;-75
2020/12/08 11:58:14;;;;;;;26.23;17.47;;;6.20;99.90;;;;;;4948047;28;20162;-83
2020/12/08 12:00:40;;;;;;;38.73;18.80;;;6.10;99.90;;;;;;4946048;29;20188;-81
2020/12/08 12:03:06;;;;;;;26.87;18.93;;;6.00;99.90;;;;;;4944288;28;20176;-78
2020/12/08 12:05:31;;;;;;;26.07;18.87;;;5.90;99.90;;;;;;4944775;29;20195;-78
2020/12/08 12:07:57;;;;;;;32.13;18.33;;;5.80;99.90;;;;;;4947502;28;20632;-79
2020/12/08 12:10:23;;;;;;;25.07;18.37;;;5.80;99.90;;;;;;4946772;28;20648;-83
2020/12/08 12:12:49;;;;;;;25.77;19.20;;;5.90;99.90;;;;;;4948371;29;20195;-84
2020/12/08 12:15:16;;;;;;;24.30;17.53;;;5.90;99.90;;;;;;4955269;28;20184;-83
2020/12/08 12:17:42;;;;;;;21.67;17.00;;;6.00;99.90;;;;;;4958425;29;20244;-85
2020/12/08 12:20:08;;;;;;;23.03;17.43;;;6.10;99.90;;;;;;4954421;28;20199;-84
2020/12/08 12:22:35;;;;;;;21.97;17.20;;;6.10;99.90;;;;;;4956044;28;20313;-86
2020/12/08 12:25:02;;;;;;;27.50;17.63;;;6.10;99.90;;;;;;4955485;28;20699;-86
2020/12/08 12:27:28;;;;;;;23.73;17.23;;;6.20;99.90;;;;;;4970851;28;20230;-83
2020/12/08 12:29:54;;;;;;;26.10;18.07;;;6.30;99.90;;;;;;4970682;28;20201;-81
2020/12/08 12:32:19;;;;;;;22.33;17.13;;;6.30;99.90;;;;;;4953141;29;20181;-76
2020/12/08 12:34:45;;;;;;;22.83;17.73;;;6.30;99.90;;;;;;4953968;29;20177;-82
2020/12/08 12:37:11;;;;;;;22.17;17.53;;;6.30;99.90;;;;;;4951537;29;20221;-79
2020/12/08 12:39:37;;;;;;;24.77;17.60;;;6.40;99.90;;;;;;4955668;29;20177;-81
2020/12/08 12:42:03;;;;;;;27.33;17.30;;;6.60;99.90;;;;;;4958246;29;20260;-82
2020/12/08 12:44:29;;;;;;;25.17;18.43;;;6.80;99.90;;;;;;4948616;29;20224;-84
2020/12/08 12:46:56;;;;;;;22.73;17.57;;;7.00;99.90;;;;;;4924432;29;20173;-85
2020/12/08 12:49:24;;;;;;;22.37;17.67;;;7.10;99.90;;;;;;4923172;29;20273;-84
2020/12/08 12:51:50;;;;;;;27.93;18.90;;;7.20;99.90;;;;;;4921882;29;20681;-84
2020/12/08 12:54:17;;;;;;;21.53;18.03;;;7.20;99.90;;;;;;4923245;29;20197;-84
2020/12/08 12:56:43;;;;;;;27.67;19.20;;;7.10;99.90;;;;;;4922237;29;20258;-83
2020/12/08 12:59:09;;;;;;;27.50;18.77;;;7.20;99.90;;;;;;4922784;29;20201;-85
2020/12/08 13:01:35;;;;;;;25.53;17.90;;;7.30;99.90;;;;;;4940418;29;20215;-85
2020/12/08 13:04:01;;;;;;;21.20;16.77;;;7.20;99.90;;;;;;4941811;29;20224;-85
2020/12/08 13:06:27;;;;;;;26.00;18.47;;;7.10;99.90;;;;;;4936761;29;20188;-83
2020/12/08 13:08:59;;;;;;;25.03;17.80;;;7.20;99.90;;;;;;4936091;29;20177;-84
2020/12/08 13:11:27;;;;;;;26.70;18.37;;;7.10;99.90;;;;;;4942872;29;20201;-84
2020/12/08 13:13:56;;;;;;;23.10;17.70;;;7.20;99.90;;;;;;4952023;29;20263;-82
2020/12/08 13:16:26;;;;;;;22.03;17.13;;;7.30;99.90;;;;;;4944058;29;20192;-78
2020/12/08 13:18:52;;;;;;;28.17;17.43;;;7.20;99.90;;;;;;4938430;29;20181;-77
2020/12/08 13:21:18;;;;;;;27.60;17.60;;;7.20;99.90;;;;;;4937737;29;20195;-79
2020/12/08 13:23:44;;;;;;;23.93;17.63;;;7.20;99.90;;;;;;4937114;29;20184;-77
2020/12/08 13:26:09;;;;;;;19.77;16.03;;;7.00;99.90;;;;;;4936721;29;20656;-77
2020/12/08 13:28:37;;;;;;;20.90;16.43;;;6.90;99.90;;;;;;4939201;29;20204;-83
2020/12/08 13:31:06;;;;;;;23.70;17.40;;;6.80;99.90;;;;;;4941153;29;20204;-86
2020/12/08 13:33:35;;;;;;;23.17;17.53;;;6.80;99.90;;;;;;4939014;29;20263;-85
2020/12/08 13:36:04;;;;;;;25.00;18.07;;;7.10;99.90;;;;;;4939052;29;20272;-80
2020/12/08 13:38:30;;;;;;;23.10;16.47;;;7.10;99.90;;;;;;4921534;29;20178;-77
2020/12/08 13:40:56;;;;;;;19.13;16.27;;;7.20;99.90;;;;;;4936066;29;20184;-79
2020/12/08 13:43:23;;;;;;;20.43;17.13;;;7.20;99.90;;;;;;4938610;29;20183;-78
2020/12/08 13:45:49;;;;;;;21.00;17.27;;;7.20;99.90;;;;;;4936413;29;20275;-77
2020/12/08 13:48:15;;;;;;;20.37;16.03;;;7.40;99.90;;;;;;4943905;29;20161;-76
2020/12/08 13:50:42;;;;;;;20.27;15.73;;;7.50;99.90;;;;;;4947093;29;20197;-76
2020/12/08 13:53:11;;;;;;;21.13;16.30;;;7.70;99.90;;;;;;4949369;28;20181;-84
2020/12/08 13:55:50;;;;;;;18.47;15.47;;;7.80;99.90;;;;;;4943454;29;20478;-85
2020/12/08 13:58:16;;;;;;;17.63;14.60;;;7.50;99.90;;;;;;4941492;29;20157;-82
2020/12/08 14:00:42;;;;;;;18.10;14.57;;;7.50;99.90;;;;;;4938590;29;20185;-76
2020/12/08 14:03:08;;;;;;;20.47;15.70;;;7.50;99.90;;;;;;4937769;29;20177;-80
2020/12/08 14:05:40;;;;;;;19.33;15.57;;;7.40;99.90;;;;;;4939556;29;20188;-84
2020/12/08 14:08:06;;;;;;;19.97;15.70;;;7.30;99.90;;;;;;4920080;29;20182;-82
2020/12/08 14:10:32;;;;;;;21.37;16.43;;;7.30;99.90;;;;;;4918393;29;20209;-77
2020/12/08 14:12:58;;;;;;;20.60;15.50;;;7.20;99.90;;;;;;4918019;29;20184;-82
2020/12/08 14:15:28;;;;;;;19.90;16.13;;;7.20;99.90;;;;;;4939992;29;20648;-76
2020/12/08 14:17:56;;;;;;;21.77;17.07;;;7.10;99.90;;;;;;4955556;29;20716;-76
2020/12/08 14:20:21;;;;;;;24.70;16.90;;;7.20;99.90;;;;;;4955931;29;20185;-76
2020/12/08 14:22:48;;;;;;;21.57;18.53;;;7.20;99.90;;;;;;4955455;28;20218;-75
2020/12/08 14:25:14;;;;;;;23.17;17.03;;;7.30;99.90;;;;;;4962026;29;20228;-77
2020/12/08 14:27:41;;;;;;;22.97;17.43;;;7.40;99.90;;;;;;4964944;29;20176;-76
2020/12/08 14:30:06;;;;;;;22.63;17.07;;;7.40;99.90;;;;;;4956284;28;20208;-78
2020/12/08 14:32:36;;;;;;;22.40;17.17;;;7.30;99.90;;;;;;4956210;28;20185;-77
2020/12/08 14:35:05;;;;;;;21.07;16.80;;;7.20;99.90;;;;;;4956187;29;20620;-79
2020/12/08 14:37:31;;;;;;;25.37;17.73;;;7.10;99.90;;;;;;4939640;28;20184;-76
2020/12/08 14:39:57;;;;;;;21.57;16.57;;;7.20;99.90;;;;;;4935648;29;20248;-79
2020/12/08 14:42:23;;;;;;;18.00;15.57;;;7.10;99.90;;;;;;4935438;29;20305;-81
2020/12/08 14:44:48;;;;;;;21.63;17.37;;;7.00;99.90;;;;;;4936142;29;20208;-80
2020/12/08 14:47:14;;;;;;;21.50;16.23;;;6.90;99.90;;;;;;4937339;29;20651;-82
2020/12/08 14:49:41;;;;;;;21.10;16.70;;;7.00;99.90;;;;;;4942790;29;20615;-76
2020/12/08 14:52:07;;;;;;;18.60;16.43;;;7.00;99.90;;;;;;4943228;29;20362;-75
2020/12/08 14:54:32;;;;;;;21.00;16.93;;;7.00;99.90;;;;;;4936165;29;20205;-79
2020/12/08 14:56:59;;;;;;;19.43;15.47;;;6.90;99.90;;;;;;4940650;29;20164;-80
2020/12/08 14:59:26;;;;;;;25.97;23.27;;;6.80;99.90;;;;;;4935778;29;20254;-76
2020/12/08 15:01:54;;;;;;;38.20;34.23;;;6.70;99.90;;;;;;4935996;29;20201;-81
2020/12/08 15:04:20;;;;;;;22.97;20.23;;;6.70;99.90;;;;;;4936580;29;20211;-79
2020/12/08 15:06:47;;;;;;;16.73;14.07;;;6.70;99.90;;;;;;4926307;29;20181;-76
2020/12/08 15:09:14;;;;;;;18.80;16.17;;;6.60;99.90;;;;;;4922992;29;20173;-82
2020/12/08 15:11:42;;;;;;;20.23;18.07;;;6.60;99.90;;;;;;4918828;29;20201;-83
2020/12/08 15:14:08;;;;;;;17.10;14.13;;;6.60;99.90;;;;;;4920056;29;20181;-80
2020/12/08 15:16:33;;;;;;;15.83;13.53;;;6.60;99.90;;;;;;4955032;29;20187;-80
2020/12/08 15:18:59;;;;;;;17.30;14.07;;;6.60;99.90;;;;;;4955003;29;20626;-83
2020/12/08 15:21:25;;;;;;;23.00;13.40;;;6.60;99.90;;;;;;4954550;29;20255;-82
2020/12/08 15:23:50;;;;;;;18.30;14.67;;;6.60;99.90;;;;;;4954129;28;20175;-79
2020/12/08 15:26:16;;;;;;;18.57;15.13;;;6.80;99.90;;;;;;4954116;28;20177;-78
2020/12/08 15:28:42;;;;;;;18.97;14.80;;;6.80;99.90;;;;;;4954733;29;20168;-81
2020/12/08 15:31:10;;;;;;;17.80;14.30;;;6.80;99.90;;;;;;4955232;29;20208;-83
2020/12/08 15:33:35;;;;;;;18.07;14.73;;;6.90;99.90;;;;;;4955211;29;20164;-79
2020/12/08 15:36:01;;;;;;;17.37;15.57;;;6.80;99.90;;;;;;4948647;29;20197;-82
2020/12/08 15:38:27;;;;;;;19.53;15.77;;;6.70;99.90;;;;;;4916682;29;20174;-82
2020/12/08 15:40:53;;;;;;;19.63;16.30;;;6.70;99.90;;;;;;4917167;29;20713;-80
2020/12/08 15:43:19;;;;;;;18.87;16.10;;;6.70;99.90;;;;;;4917616;29;20166;-82
2020/12/08 15:45:44;;;;;;;20.03;16.30;;;6.70;99.90;;;;;;4916348;29;20209;-80
2020/12/08 15:48:10;;;;;;;22.97;16.37;;;6.60;99.90;;;;;;4916340;29;20166;-78
2020/12/08 15:50:36;;;;;;;21.43;15.80;;;6.40;99.90;;;;;;4915795;29;20221;-77
2020/12/08 15:53:01;;;;;;;20.97;15.70;;;6.40;99.90;;;;;;4925846;29;20204;-77
2020/12/08 15:55:27;;;;;;;22.63;18.00;;;6.30;99.90;;;;;;4935046;29;20263;-83
2020/12/08 15:57:53;;;;;;;21.73;16.83;;;6.40;99.90;;;;;;4935718;29;20617;-78
2020/12/08 16:00:19;;;;;;;22.17;17.03;;;6.30;99.90;;;;;;4936367;29;20248;-84
2020/12/08 16:02:45;;;;;;;20.70;16.50;;;6.30;99.90;;;;;;4935749;29;20507;-78
2020/12/08 16:05:11;;;;;;;22.07;16.80;;;6.20;99.90;;;;;;4935381;29;20169;-77
2020/12/08 16:07:37;;;;;;;21.80;16.87;;;6.10;99.90;;;;;;4918507;29;20528;-80
2020/12/08 16:10:04;;;;;;;21.07;17.00;;;6.20;99.90;;;;;;4915188;29;20201;-77
2020/12/08 16:12:39;;;;;;;24.50;17.73;;;6.20;99.90;;;;;;4916131;29;20205;-80
2020/12/08 16:15:06;;;;;;;22.57;17.67;;;6.20;99.90;;;;;;4933422;29;20542;-82
2020/12/08 16:17:36;;;;;;;24.77;17.23;;;6.20;99.90;;;;;;4953906;29;20676;-80
2020/12/08 16:20:04;;;;;;;22.83;16.77;;;6.20;99.90;;;;;;4960023;29;20188;-81
2020/12/08 16:22:29;;;;;;;22.43;18.20;;;6.00;99.90;;;;;;4961794;28;20176;-81
2020/12/08 16:24:55;;;;;;;23.03;18.10;;;6.00;99.90;;;;;;4961331;28;20191;-81
2020/12/08 16:27:21;;;;;;;25.17;18.13;;;5.90;99.90;;;;;;4961659;28;20176;-79
2020/12/08 16:29:46;;;;;;;24.13;19.13;;;6.10;99.90;;;;;;4957097;28;20625;-81
2020/12/08 16:32:13;;;;;;;24.37;20.00;;;6.20;99.90;;;;;;4953869;28;20604;-83
2020/12/08 16:34:38;;;;;;;28.13;19.83;;;6.40;99.90;;;;;;4953716;28;20165;-82
2020/12/08 16:37:04;;;;;;;24.97;20.40;;;6.50;99.90;;;;;;4943116;29;20185;-78
2020/12/08 16:39:30;;;;;;;26.77;19.73;;;6.70;99.90;;;;;;4935200;29;20276;-77
2020/12/08 16:41:55;;;;;;;28.93;22.20;;;6.80;99.90;;;;;;4935417;29;20634;-82
2020/12/08 16:44:21;;;;;;;26.37;20.20;;;6.70;99.90;;;;;;4934263;29;20221;-80
2020/12/08 16:46:47;;;;;;;26.17;19.57;;;6.80;99.90;;;;;;4935778;29;20637;-80
2020/12/08 16:49:12;;;;;;;32.00;24.03;;;6.80;99.90;;;;;;4935216;29;20184;-81
2020/12/08 16:51:39;;;;;;;29.67;22.53;;;6.70;99.90;;;;;;4934631;29;20297;-84
2020/12/08 16:54:07;;;;;;;32.47;22.07;;;6.60;99.90;;;;;;4936903;29;20197;-83
2020/12/08 16:56:37;;;;;;;28.03;22.53;;;6.70;99.90;;;;;;4935767;29;20173;-83
2020/12/08 16:59:04;;;;;;;29.33;21.53;;;6.80;99.90;;;;;;4935417;29;20168;-76
2020/12/08 17:01:37;;;;;;;28.27;22.00;;;6.70;99.90;;;;;;4934610;29;20177;-80
2020/12/08 17:04:04;;;;;;;26.40;21.27;;;6.70;99.90;;;;;;4937181;29;20170;-83
2020/12/08 17:06:30;;;;;;;26.97;21.40;;;6.70;99.90;;;;;;4936663;29;20244;-79
2020/12/08 17:08:55;;;;;;;28.13;21.57;;;6.70;99.90;;;;;;4936702;29;20173;-86
2020/12/08 17:11:21;;;;;;;29.80;22.37;;;6.80;99.90;;;;;;4936262;29;20208;-78
2020/12/08 17:13:48;;;;;;;29.20;22.00;;;6.80;99.90;;;;;;4936251;29;20683;-78
2020/12/08 17:16:14;;;;;;;29.93;22.07;;;6.80;99.90;;;;;;4939134;29;20263;-78
2020/12/08 17:18:40;;;;;;;27.13;21.53;;;6.70;99.90;;;;;;4938130;29;20248;-84
2020/12/08 17:21:06;;;;;;;28.77;22.20;;;6.70;99.90;;;;;;4938510;29;20161;-78
2020/12/08 17:23:33;;;;;;;27.93;21.03;;;6.70;99.90;;;;;;4939035;29;20165;-79
2020/12/08 17:26:00;;;;;;;30.10;22.40;;;6.70;99.90;;;;;;4938440;29;20177;-82
2020/12/08 17:28:26;;;;;;;25.73;21.33;;;6.80;99.90;;;;;;4938452;29;20252;-82
2020/12/08 17:30:52;;;;;;;28.73;23.30;;;6.80;99.90;;;;;;4940445;29;20213;-78
2020/12/08 17:33:18;;;;;;;30.97;22.90;;;6.90;99.90;;;;;;4940303;29;20161;-84
2020/12/08 17:35:45;;;;;;;32.07;23.57;;;7.00;99.90;;;;;;4937545;29;20169;-76
2020/12/08 17:38:11;;;;;;;30.20;23.60;;;7.00;99.90;;;;;;4922100;29;20205;-80
2020/12/08 17:40:37;;;;;;;31.77;23.70;;;7.00;99.90;;;;;;4923758;29;20173;-81
2020/12/08 17:43:02;;;;;;;32.90;22.73;;;7.00;99.90;;;;;;4922441;29;20224;-85
2020/12/08 17:45:28;;;;;;;32.70;23.93;;;7.00;99.90;;;;;;4924324;29;20213;-79
2020/12/08 17:47:58;;;;;;;29.07;23.43;;;6.70;99.90;;;;;;4923901;29;20169;-84
2020/12/08 17:50:24;;;;;;;29.30;22.80;;;6.70;99.90;;;;;;4926933;29;20197;-81
2020/12/08 17:52:53;;;;;;;29.93;23.43;;;6.70;99.90;;;;;;4941036;29;20269;-79
2020/12/08 17:55:20;;;;;;;31.13;24.20;;;6.60;99.90;;;;;;4942247;29;20176;-85
2020/12/08 17:57:45;;;;;;;35.57;25.60;;;6.70;99.90;;;;;;4956864;28;20176;-83
2020/12/08 18:00:13;;;;;;;34.83;27.23;;;6.80;99.90;;;;;;4961433;28;20165;-80
2020/12/08 18:02:40;;;;;;;36.13;28.40;;;6.70;99.90;;;;;;4962185;28;20203;-81
2020/12/08 18:05:08;;;;;;;35.73;28.43;;;6.50;99.90;;;;;;4954452;28;20652;-80
2020/12/08 18:07:38;;;;;;;34.60;27.57;;;6.50;99.90;;;;;;4950257;29;20169;-81
2020/12/08 18:10:05;;;;;;;37.27;28.23;;;6.30;99.90;;;;;;4949902;28;20267;-81
2020/12/08 18:12:32;;;;;;;34.33;26.80;;;6.20;99.90;;;;;;4942799;29;20651;-81
2020/12/08 18:14:59;;;;;;;34.67;28.10;;;6.10;99.90;;;;;;4939547;29;20192;-83
2020/12/08 18:17:25;;;;;;;40.47;28.53;;;5.90;99.90;;;;;;4928212;29;20229;-78
2020/12/08 18:19:51;;;;;;;39.83;29.23;;;5.80;99.90;;;;;;4928757;29;20170;-77
2020/12/08 18:22:17;;;;;;;40.03;29.23;;;5.60;99.90;;;;;;4927224;29;20173;-79
2020/12/08 18:24:50;;;;;;;39.10;29.03;;;5.60;99.90;;;;;;4953120;28;20180;-80
2020/12/08 18:27:16;;;;;;;37.53;29.13;;;5.60;99.90;;;;;;4964562;28;20180;-80
2020/12/08 18:29:41;;;;;;;41.03;30.60;;;5.60;99.90;;;;;;4963969;29;20554;-83
2020/12/08 18:32:07;;;;;;;39.27;29.97;;;5.40;99.90;;;;;;4955422;29;20176;-78
2020/12/08 18:34:34;;;;;;;38.50;29.90;;;5.30;99.90;;;;;;4956390;28;20176;-82